Карточка аэропорта ULPB

Внимание!
Информация на этой странице в стадии наполнения.
Если вы не увидели какой-то информации, или заметили неточность - пожалуйста сообщите нам!
Спасибо!
Команда RU-STAFF
Название аэропортаПетрозаводск
Название аэропорта (англ.)Petrozavodsk
Превышение151 ft. (46 m.)
Координаты61°53.07', 34°9.258'
Высота перехода900
Эшелон перехода070
Коды ответчика3135-3137
Зона ОрВДСанкт-Петербург РПИ (ULLL)
Данные METARULPB 272100Z AUTO 09002MPS 060V150 3900 -DZ 08/08 Q1015 RMK QBB110 QFE757/1010
Проноз погоды (TAF)
NOTAMshow/hide NOTAM
AWOS   TABLE

Информация о ВПП


Диспетчерские позиции

Позывной Наименование органа УВД Частота
ULPB_APPПетрозаводск-Вышка128.000



Спутниковое изображение